Time;durP1;ratioP1;P1;durP2;ratioP2;P2;SDS_P1;SDS_P2;PMS_P1;PMS_P2;Temp;Humidity;BMP_temperature;BMP_pressure;BME280_temperature;BME280_humidity;BME280_pressure;Samples;Min_cycle;Max_cycle;Signal;HPM_P1;HPM_P2
2023/08/24 04:46:03;;;;;;;28.77;16.07;;;;;;;;;;5621499;23;20522;-72
2023/08/24 04:48:35;;;;;;;27.23;15.77;;;;;;;;;;4973521;28;20976;-72
2023/08/24 04:51:02;;;;;;;28.60;15.33;;;;;;;;;;4984052;28;20488;-72
2023/08/24 04:53:28;;;;;;;27.10;15.20;;;;;;;;;;4988157;28;20420;-72
2023/08/24 04:55:54;;;;;;;23.77;15.77;;;;;;;;;;4989817;28;20428;-72
2023/08/24 04:58:21;;;;;;;24.40;15.47;;;;;;;;;;4981133;23;20520;-73
2023/08/24 05:00:46;;;;;;;21.83;15.00;;;;;;;;;;4935094;29;20699;-73
2023/08/24 05:03:13;;;;;;;22.97;14.37;;;;;;;;;;4935196;29;20457;-73
2023/08/24 05:05:39;;;;;;;19.23;14.13;;;;;;;;;;4934775;29;20416;-73
2023/08/24 05:08:06;;;;;;;22.93;15.70;;;;;;;;;;4934222;29;20460;-73
2023/08/24 05:10:33;;;;;;;23.30;15.30;;;;;;;;;;4934603;29;20859;-73
2023/08/24 05:12:59;;;;;;;32.73;15.13;;;;;;;;;;4934796;29;20424;-73
2023/08/24 05:15:25;;;;;;;21.73;13.73;;;;;;;;;;4934652;29;20482;-73
2023/08/24 05:17:56;;;;;;;19.33;13.50;;;;;;;;;;4934359;29;20931;-73
2023/08/24 05:20:22;;;;;;;22.07;16.40;;;;;;;;;;4934489;29;20409;-74
2023/08/24 05:22:49;;;;;;;22.30;13.93;;;;;;;;;;4934575;29;20902;-74
2023/08/24 05:25:18;;;;;;;30.40;15.80;;;;;;;;;;4934497;29;20420;-73
2023/08/24 05:27:44;;;;;;;38.83;14.83;;;;;;;;;;4934058;29;20848;-73
2023/08/24 05:30:10;;;;;;;25.93;14.07;;;;;;;;;;4934139;29;20818;-73
2023/08/24 05:32:39;;;;;;;25.43;15.20;;;;;;;;;;4934405;29;20801;-73
2023/08/24 05:35:06;;;;;;;21.13;13.50;;;;;;;;;;4934437;29;20406;-74
2023/08/24 05:37:32;;;;;;;21.87;13.67;;;;;;;;;;4934201;29;20440;-74
2023/08/24 05:39:58;;;;;;;21.07;13.90;;;;;;;;;;4934029;29;20433;-74
2023/08/24 05:42:24;;;;;;;22.90;13.47;;;;;;;;;;4934237;29;20414;-74
2023/08/24 05:44:50;;;;;;;25.10;13.57;;;;;;;;;;4934247;29;20410;-74
2023/08/24 05:47:16;;;;;;;21.23;13.47;;;;;;;;;;4933713;29;20477;-74
2023/08/24 05:49:42;;;;;;;31.57;13.67;;;;;;;;;;4933663;29;20931;-73
2023/08/24 05:52:08;;;;;;;25.90;14.13;;;;;;;;;;4934218;29;20409;-74
2023/08/24 05:54:37;;;;;;;22.23;14.23;;;;;;;;;;4937933;29;20433;-74
2023/08/24 05:57:03;;;;;;;29.53;14.17;;;;;;;;;;4937083;29;20445;-74
2023/08/24 05:59:29;;;;;;;22.57;13.23;;;;;;;;;;4936492;29;20501;-72
2023/08/24 06:01:55;;;;;;;23.00;12.83;;;;;;;;;;4918264;29;20916;-73
2023/08/24 06:04:21;;;;;;;25.83;14.23;;;;;;;;;;4918407;29;20465;-72
2023/08/24 06:06:47;;;;;;;21.67;12.37;;;;;;;;;;4936857;29;20931;-70
2023/08/24 06:09:14;;;;;;;24.47;13.97;;;;;;;;;;4936709;29;20515;-69
2023/08/24 06:11:40;;;;;;;20.90;13.00;;;;;;;;;;4937194;29;20481;-70
2023/08/24 06:14:07;;;;;;;27.47;14.30;;;;;;;;;;4937130;29;20421;-70
2023/08/24 06:16:33;;;;;;;25.03;13.80;;;;;;;;;;4936837;29;20560;-70
2023/08/24 06:18:59;;;;;;;22.43;14.53;;;;;;;;;;4936927;29;20548;-69
2023/08/24 06:21:24;;;;;;;28.03;13.27;;;;;;;;;;4935211;29;20438;-69
2023/08/24 06:23:50;;;;;;;27.83;14.80;;;;;;;;;;4928457;29;20477;-69
2023/08/24 06:26:18;;;;;;;24.10;14.00;;;;;;;;;;4935382;29;20565;-70
2023/08/24 06:28:44;;;;;;;20.40;13.40;;;;;;;;;;4936599;29;20433;-70
2023/08/24 06:31:10;;;;;;;26.03;13.10;;;;;;;;;;4935442;29;20636;-70
2023/08/24 06:33:36;;;;;;;24.57;13.60;;;;;;;;;;4936475;29;20417;-70
2023/08/24 06:36:05;;;;;;;19.77;12.43;;;;;;;;;;4936539;29;20422;-70
2023/08/24 06:38:31;;;;;;;33.70;12.97;;;;;;;;;;4936191;29;20442;-70
2023/08/24 06:41:00;;;;;;;21.83;13.10;;;;;;;;;;4936552;29;20896;-70
2023/08/24 06:43:26;;;;;;;20.13;13.17;;;;;;;;;;4936413;29;20469;-70
2023/08/24 06:45:52;;;;;;;17.87;12.07;;;;;;;;;;4936304;29;20484;-71
2023/08/24 06:48:19;;;;;;;22.90;11.70;;;;;;;;;;4936278;29;20878;-70
2023/08/24 06:50:44;;;;;;;28.53;11.07;;;;;;;;;;4936768;29;20504;-70
2023/08/24 06:53:10;;;;;;;19.50;12.37;;;;;;;;;;4936358;29;20461;-70
2023/08/24 06:55:37;;;;;;;27.40;12.43;;;;;;;;;;4935847;29;20476;-70
2023/08/24 06:58:06;;;;;;;21.60;12.87;;;;;;;;;;4935876;29;20558;-70
2023/08/24 07:00:33;;;;;;;23.43;13.83;;;;;;;;;;4936142;29;20414;-70
2023/08/24 07:02:59;;;;;;;22.63;11.73;;;;;;;;;;4936021;29;20492;-70
2023/08/24 07:05:25;;;;;;;20.80;12.47;;;;;;;;;;4936480;29;20422;-71
2023/08/24 07:07:51;;;;;;;26.03;12.40;;;;;;;;;;4935624;29;20429;-71
2023/08/24 07:10:17;;;;;;;27.80;13.03;;;;;;;;;;4935894;29;20405;-71
2023/08/24 07:12:45;;;;;;;16.87;11.40;;;;;;;;;;4936177;29;20418;-70
2023/08/24 07:15:11;;;;;;;14.90;10.20;;;;;;;;;;4931676;29;20827;-70
2023/08/24 07:17:37;;;;;;;18.73;10.73;;;;;;;;;;4932520;29;20455;-70
2023/08/24 07:20:11;;;;;;;20.43;11.13;;;;;;;;;;4935510;29;20421;-70
2023/08/24 07:22:37;;;;;;;20.43;10.70;;;;;;;;;;4927798;29;20470;-70
2023/08/24 07:25:05;;;;;;;16.03;10.53;;;;;;;;;;4916882;29;20426;-69
2023/08/24 07:27:33;;;;;;;21.60;11.53;;;;;;;;;;4916753;29;20493;-70
2023/08/24 07:29:59;;;;;;;16.10;10.23;;;;;;;;;;4916697;29;20537;-69
2023/08/24 07:32:26;;;;;;;15.37;10.57;;;;;;;;;;4922910;29;20517;-69
2023/08/24 07:34:52;;;;;;;18.97;9.23;;;;;;;;;;4927531;29;20437;-69
2023/08/24 07:37:18;;;;;;;14.80;8.57;;;;;;;;;;4916607;29;20791;-71
2023/08/24 07:39:44;;;;;;;12.63;9.73;;;;;;;;;;4916490;29;20450;-69
2023/08/24 07:42:10;;;;;;;16.33;9.50;;;;;;;;;;4919935;29;20426;-68
2023/08/24 07:44:36;;;;;;;18.07;8.93;;;;;;;;;;4926752;29;20497;-70
2023/08/24 07:47:02;;;;;;;17.65;8.52;;;;;;;;;;4929370;29;20421;-71
2023/08/24 07:49:28;;;;;;;11.93;8.63;;;;;;;;;;4934861;29;20589;-71
2023/08/24 07:51:55;;;;;;;11.83;9.10;;;;;;;;;;4934495;29;20460;-72
2023/08/24 07:54:21;;;;;;;26.50;12.27;;;;;;;;;;4934872;29;20429;-70
2023/08/24 07:56:47;;;;;;;14.30;8.30;;;;;;;;;;4933919;29;20935;-70
2023/08/24 07:59:13;;;;;;;15.80;7.73;;;;;;;;;;4934863;29;20879;-70
2023/08/24 08:01:39;;;;;;;13.93;7.13;;;;;;;;;;4931294;29;20525;-72
2023/08/24 08:04:05;;;;;;;11.00;7.03;;;;;;;;;;4929250;29;20560;-71
2023/08/24 08:06:31;;;;;;;11.77;7.07;;;;;;;;;;4926250;29;20518;-72
2023/08/24 08:08:58;;;;;;;8.23;6.80;;;;;;;;;;4934424;29;20844;-71
2023/08/24 08:11:23;;;;;;;13.13;7.10;;;;;;;;;;4934617;29;20935;-71
2023/08/24 08:13:49;;;;;;;8.30;6.50;;;;;;;;;;4934619;29;20434;-72
2023/08/24 08:16:15;;;;;;;11.40;7.00;;;;;;;;;;4932902;29;20430;-72
2023/08/24 08:18:41;;;;;;;8.93;6.87;;;;;;;;;;4933933;29;20573;-72
2023/08/24 08:21:14;;;;;;;14.20;7.93;;;;;;;;;;4934345;29;20500;-71
2023/08/24 08:23:40;;;;;;;11.00;7.90;;;;;;;;;;4934549;29;21027;-72
2023/08/24 08:26:06;;;;;;;10.30;7.03;;;;;;;;;;4930558;29;20454;-74
2023/08/24 08:28:34;;;;;;;12.87;6.50;;;;;;;;;;4930398;29;20814;-73
2023/08/24 08:31:00;;;;;;;17.40;7.40;;;;;;;;;;4933072;29;20920;-73
2023/08/24 08:33:26;;;;;;;9.33;6.60;;;;;;;;;;4934530;29;20425;-72
2023/08/24 08:35:52;;;;;;;8.87;6.63;;;;;;;;;;4932316;29;20440;-73
2023/08/24 08:38:18;;;;;;;9.50;7.43;;;;;;;;;;4929210;29;20449;-73
2023/08/24 08:40:45;;;;;;;14.60;7.50;;;;;;;;;;4933377;29;20442;-72
2023/08/24 08:43:11;;;;;;;11.23;6.70;;;;;;;;;;4934584;29;20469;-73
2023/08/24 08:45:36;;;;;;;9.50;7.13;;;;;;;;;;4934010;29;20477;-73
2023/08/24 08:48:03;;;;;;;16.23;8.03;;;;;;;;;;4930926;29;20862;-73
2023/08/24 08:50:29;;;;;;;14.63;7.53;;;;;;;;;;4934126;29;20425;-73
2023/08/24 08:52:58;;;;;;;9.40;6.80;;;;;;;;;;4933082;29;20768;-73
2023/08/24 08:55:24;;;;;;;12.80;7.60;;;;;;;;;;4933778;29;20437;-72
2023/08/24 08:57:52;;;;;;;12.30;6.70;;;;;;;;;;4925235;29;20843;-72
2023/08/24 09:00:18;;;;;;;9.20;6.90;;;;;;;;;;4932890;29;21066;-73
2023/08/24 09:02:45;;;;;;;11.70;7.00;;;;;;;;;;4933589;29;20476;-71
2023/08/24 09:05:12;;;;;;;16.27;7.83;;;;;;;;;;4933832;29;21000;-71
2023/08/24 09:07:40;;;;;;;8.93;7.43;;;;;;;;;;4925415;29;20787;-71
2023/08/24 09:10:07;;;;;;;14.67;7.70;;;;;;;;;;4933032;29;20440;-71
2023/08/24 09:12:33;;;;;;;17.50;7.33;;;;;;;;;;4933174;29;20885;-71
2023/08/24 09:14:59;;;;;;;12.47;7.10;;;;;;;;;;4934288;29;20410;-71
2023/08/24 09:17:25;;;;;;;18.30;8.43;;;;;;;;;;4934816;29;20775;-73
2023/08/24 09:19:51;;;;;;;10.07;6.70;;;;;;;;;;4930280;29;20557;-72
2023/08/24 09:22:18;;;;;;;11.13;6.63;;;;;;;;;;4933767;29;20418;-74
2023/08/24 09:24:45;;;;;;;9.93;6.60;;;;;;;;;;4934549;29;20880;-72
2023/08/24 09:27:17;;;;;;;13.50;6.40;;;;;;;;;;4934927;29;21077;-73
2023/08/24 09:29:44;;;;;;;11.50;6.93;;;;;;;;;;4935318;29;20511;-71
2023/08/24 09:32:10;;;;;;;9.40;6.57;;;;;;;;;;4935305;29;20485;-72
2023/08/24 09:34:37;;;;;;;10.80;6.63;;;;;;;;;;4937748;29;20966;-72
2023/08/24 09:37:06;;;;;;;12.30;7.93;;;;;;;;;;4938007;29;20493;-72
2023/08/24 09:39:32;;;;;;;13.40;7.60;;;;;;;;;;4937280;29;20453;-72
2023/08/24 09:42:04;;;;;;;13.97;7.67;;;;;;;;;;4937856;29;20417;-72
2023/08/24 09:44:30;;;;;;;14.20;6.80;;;;;;;;;;4938276;29;20464;-72
2023/08/24 09:46:56;;;;;;;12.30;6.80;;;;;;;;;;4938028;29;20406;-72
2023/08/24 09:49:22;;;;;;;11.77;7.73;;;;;;;;;;4937817;29;20457;-72
2023/08/24 09:51:48;;;;;;;14.57;8.37;;;;;;;;;;4938804;29;20461;-73
2023/08/24 09:54:16;;;;;;;8.90;6.03;;;;;;;;;;4938233;29;20425;-71
2023/08/24 09:56:43;;;;;;;17.07;7.60;;;;;;;;;;4934769;29;20863;-72
2023/08/24 09:59:17;;;;;;;15.90;7.90;;;;;;;;;;4938169;29;20459;-71
2023/08/24 10:01:44;;;;;;;12.97;7.77;;;;;;;;;;4938647;29;20421;-71
2023/08/24 10:04:11;;;;;;;11.73;7.70;;;;;;;;;;4937033;29;20477;-70
2023/08/24 10:06:39;;;;;;;10.97;6.60;;;;;;;;;;4930891;29;20426;-70
2023/08/24 10:09:07;;;;;;;12.30;7.10;;;;;;;;;;4936949;29;20436;-70
2023/08/24 10:11:36;;;;;;;11.40;7.00;;;;;;;;;;4937627;29;20505;-72
2023/08/24 10:14:14;;;;;;;9.77;7.00;;;;;;;;;;4937507;29;20477;-70
2023/08/24 10:16:41;;;;;;;10.53;7.80;;;;;;;;;;4936460;29;20433;-71
2023/08/24 10:19:07;;;;;;;10.37;7.10;;;;;;;;;;4932418;29;20451;-71
2023/08/24 10:21:33;;;;;;;10.33;7.20;;;;;;;;;;4937374;29;20409;-71
2023/08/24 10:24:01;;;;;;;11.40;7.70;;;;;;;;;;4938013;29;20561;-69
2023/08/24 10:26:27;;;;;;;8.57;7.23;;;;;;;;;;4939083;29;20468;-70
2023/08/24 10:28:53;;;;;;;9.60;7.37;;;;;;;;;;4938202;29;20974;-71
2023/08/24 10:31:21;;;;;;;9.37;6.73;;;;;;;;;;4938688;29;20833;-70
2023/08/24 10:33:47;;;;;;;13.93;7.40;;;;;;;;;;4938699;29;20437;-70
2023/08/24 10:36:14;;;;;;;10.30;7.50;;;;;;;;;;4939070;29;20433;-71
2023/08/24 10:38:43;;;;;;;13.23;7.73;;;;;;;;;;4936078;29;20991;-70
2023/08/24 10:41:13;;;;;;;13.60;7.67;;;;;;;;;;4919756;29;20437;-70
2023/08/24 10:43:39;;;;;;;19.93;8.77;;;;;;;;;;4919633;29;20549;-71
2023/08/24 10:46:12;;;;;;;12.33;7.33;;;;;;;;;;4920075;29;20406;-71
2023/08/24 10:48:41;;;;;;;10.80;7.40;;;;;;;;;;4934845;29;20520;-71
2023/08/24 10:51:17;;;;;;;10.40;8.13;;;;;;;;;;4938426;29;20763;-71
2023/08/24 10:53:47;;;;;;;13.63;7.73;;;;;;;;;;4937450;29;20440;-71
2023/08/24 10:56:17;;;;;;;13.33;8.40;;;;;;;;;;4937881;29;20773;-71
2023/08/24 10:58:44;;;;;;;14.50;7.90;;;;;;;;;;4935760;29;20465;-73
2023/08/24 11:01:22;;;;;;;12.27;8.03;;;;;;;;;;4932458;29;20425;-72
2023/08/24 11:03:51;;;;;;;12.40;8.23;;;;;;;;;;4937830;29;20465;-72
2023/08/24 11:06:21;;;;;;;17.83;8.30;;;;;;;;;;4938306;29;20438;-74
2023/08/24 11:08:48;;;;;;;8.23;7.70;;;;;;;;;;4938273;29;20463;-72
2023/08/24 11:11:25;;;;;;;8.80;7.03;;;;;;;;;;4938695;29;20422;-72
2023/08/24 11:14:09;;;;;;;10.80;7.80;;;;;;;;;;4938285;29;20410;-75
2023/08/24 11:16:39;;;;;;;9.63;7.73;;;;;;;;;;4937940;29;20441;-72
2023/08/24 11:19:06;;;;;;;14.13;8.37;;;;;;;;;;4930595;29;20451;-69
2023/08/24 11:21:34;;;;;;;10.40;8.17;;;;;;;;;;4936525;29;20421;-71
2023/08/24 11:24:00;;;;;;;17.20;8.27;;;;;;;;;;4938697;29;20460;-71
2023/08/24 11:26:26;;;;;;;11.80;7.50;;;;;;;;;;4938043;29;20781;-77
2023/08/24 11:28:57;;;;;;;9.53;7.87;;;;;;;;;;4937883;29;20434;-71
2023/08/24 11:31:23;;;;;;;15.60;9.50;;;;;;;;;;4937503;29;20405;-73
2023/08/24 11:33:55;;;;;;;13.33;8.43;;;;;;;;;;4932617;29;20430;-74
2023/08/24 11:36:21;;;;;;;14.53;8.80;;;;;;;;;;4929878;29;20453;-74
2023/08/24 11:38:47;;;;;;;12.33;7.60;;;;;;;;;;4928377;29;20438;-73
2023/08/24 11:41:16;;;;;;;8.73;7.90;;;;;;;;;;4928097;29;20964;-70
2023/08/24 11:43:47;;;;;;;10.57;8.40;;;;;;;;;;4925835;29;20956;-71
2023/08/24 11:46:16;;;;;;;11.00;8.00;;;;;;;;;;4930917;29;20522;-73
2023/08/24 11:48:42;;;;;;;12.73;8.60;;;;;;;;;;4929607;29;20434;-72
2023/08/24 11:51:12;;;;;;;12.90;8.10;;;;;;;;;;4928809;29;20449;-75
2023/08/24 11:53:39;;;;;;;11.13;7.40;;;;;;;;;;4933903;29;20822;-72
2023/08/24 11:56:05;;;;;;;11.40;8.10;;;;;;;;;;4928223;29;20414;-76
2023/08/24 11:58:31;;;;;;;11.37;8.40;;;;;;;;;;4930387;29;20470;-74
2023/08/24 12:01:01;;;;;;;12.50;8.10;;;;;;;;;;4934482;29;20859;-73
2023/08/24 12:03:27;;;;;;;12.23;8.70;;;;;;;;;;4931103;29;20476;-76
2023/08/24 12:05:53;;;;;;;11.57;8.33;;;;;;;;;;4933467;29;20436;-73
2023/08/24 12:08:19;;;;;;;13.10;8.40;;;;;;;;;;4936410;29;20476;-73
2023/08/24 12:10:45;;;;;;;13.20;8.93;;;;;;;;;;4936062;29;20800;-70
2023/08/24 12:13:12;;;;;;;9.90;8.67;;;;;;;;;;4937154;29;20920;-72
2023/08/24 12:15:38;;;;;;;14.40;8.23;;;;;;;;;;4933253;29;20907;-73
2023/08/24 12:18:11;;;;;;;12.10;8.47;;;;;;;;;;4936612;29;20441;-73
2023/08/24 12:20:37;;;;;;;16.33;7.60;;;;;;;;;;4931242;29;20443;-73
2023/08/24 12:23:03;;;;;;;12.20;9.00;;;;;;;;;;4936283;29;20472;-73
2023/08/24 12:25:30;;;;;;;20.47;8.93;;;;;;;;;;4936618;29;20436;-73
2023/08/24 12:28:09;;;;;;;14.13;8.80;;;;;;;;;;4936252;29;20453;-72
2023/08/24 12:30:48;;;;;;;17.20;8.60;;;;;;;;;;4929871;29;20457;-73
2023/08/24 12:33:31;;;;;;;19.93;9.63;;;;;;;;;;4936033;29;20426;-74
2023/08/24 12:35:58;;;;;;;17.70;9.10;;;;;;;;;;4937539;29;20529;-74
2023/08/24 12:38:24;;;;;;;16.37;8.63;;;;;;;;;;4933890;29;20445;-74
2023/08/24 12:40:50;;;;;;;20.47;9.30;;;;;;;;;;4933413;29;20486;-73
2023/08/24 12:43:16;;;;;;;17.07;9.50;;;;;;;;;;4928909;29;20469;-73
2023/08/24 12:45:43;;;;;;;17.27;8.70;;;;;;;;;;4924764;29;20505;-73
2023/08/24 12:48:10;;;;;;;17.23;9.30;;;;;;;;;;4936166;29;20438;-72
2023/08/24 12:50:36;;;;;;;19.53;9.43;;;;;;;;;;4937844;29;20764;-73
2023/08/24 12:53:05;;;;;;;11.60;8.40;;;;;;;;;;4933319;29;20811;-73
2023/08/24 12:55:32;;;;;;;13.13;9.50;;;;;;;;;;4934428;29;20441;-72
2023/08/24 12:57:58;;;;;;;20.50;9.20;;;;;;;;;;4936618;29;20473;-73
2023/08/24 13:00:24;;;;;;;21.20;8.60;;;;;;;;;;4928906;29;20485;-74
2023/08/24 13:02:50;;;;;;;13.20;8.20;;;;;;;;;;4932813;29;20576;-71
2023/08/24 13:05:16;;;;;;;20.97;8.10;;;;;;;;;;4933094;29;20453;-73
2023/08/24 13:07:42;;;;;;;16.30;8.43;;;;;;;;;;4942420;29;20437;-73
2023/08/24 13:10:08;;;;;;;14.63;8.00;;;;;;;;;;4940157;29;20425;-72
2023/08/24 13:12:35;;;;;;;18.50;9.40;;;;;;;;;;4933393;29;20995;-74
2023/08/24 13:15:02;;;;;;;23.33;8.87;;;;;;;;;;4940500;29;20465;-71
2023/08/24 13:17:28;;;;;;;19.03;8.63;;;;;;;;;;4938200;29;20458;-70
2023/08/24 13:19:54;;;;;;;23.80;9.20;;;;;;;;;;4944964;29;20797;-72
2023/08/24 13:22:20;;;;;;;17.73;7.90;;;;;;;;;;4946374;29;20413;-72
2023/08/24 13:24:46;;;;;;;16.30;8.03;;;;;;;;;;4943318;29;20506;-69
2023/08/24 13:27:12;;;;;;;12.67;7.77;;;;;;;;;;4958185;28;20443;-71
2023/08/24 13:29:38;;;;;;;12.90;7.60;;;;;;;;;;4940604;29;20444;-70
2023/08/24 13:32:04;;;;;;;15.07;7.70;;;;;;;;;;4946614;29;20409;-70
2023/08/24 13:34:31;;;;;;;15.50;8.83;;;;;;;;;;4955343;29;20420;-71
2023/08/24 13:36:58;;;;;;;16.80;8.20;;;;;;;;;;4955316;29;20404;-70
2023/08/24 13:39:24;;;;;;;15.83;8.47;;;;;;;;;;4953167;29;20468;-71
2023/08/24 13:41:50;;;;;;;15.93;9.33;;;;;;;;;;4958389;29;20429;-71
2023/08/24 13:44:16;;;;;;;22.17;8.80;;;;;;;;;;4953905;29;20521;-71
2023/08/24 13:46:42;;;;;;;21.80;8.90;;;;;;;;;;4943173;29;20922;-70
2023/08/24 13:49:08;;;;;;;13.23;7.97;;;;;;;;;;4931322;29;20443;-71
2023/08/24 13:51:34;;;;;;;21.03;8.77;;;;;;;;;;4935464;29;20477;-75
2023/08/24 13:54:00;;;;;;;12.20;8.00;;;;;;;;;;4925138;29;20430;-72
2023/08/24 13:56:26;;;;;;;12.67;7.87;;;;;;;;;;4930349;29;20415;-71
2023/08/24 13:58:53;;;;;;;15.17;8.70;;;;;;;;;;4933180;29;20469;-71
2023/08/24 14:01:19;;;;;;;15.37;8.70;;;;;;;;;;4931352;29;20720;-70
2023/08/24 14:03:45;;;;;;;17.07;8.53;;;;;;;;;;4932358;29;20562;-70
2023/08/24 14:06:11;;;;;;;16.57;8.20;;;;;;;;;;4932215;29;20422;-71
2023/08/24 14:08:37;;;;;;;17.33;7.90;;;;;;;;;;4931025;29;20574;-71
2023/08/24 14:11:03;;;;;;;14.50;8.00;;;;;;;;;;4934448;29;20539;-71
2023/08/24 14:13:30;;;;;;;13.47;8.40;;;;;;;;;;4930500;29;20436;-70
2023/08/24 14:15:56;;;;;;;15.33;8.97;;;;;;;;;;4932775;29;20429;-69
2023/08/24 14:18:22;;;;;;;17.93;7.90;;;;;;;;;;4929460;29;20445;-69
2023/08/24 14:20:49;;;;;;;16.30;8.17;;;;;;;;;;4930368;29;20418;-70
2023/08/24 14:23:15;;;;;;;14.53;8.67;;;;;;;;;;4931097;29;20487;-71
2023/08/24 14:25:41;;;;;;;20.40;8.13;;;;;;;;;;4929601;29;20468;-71
2023/08/24 14:28:07;;;;;;;18.27;9.60;;;;;;;;;;4930376;29;20425;-71
2023/08/24 14:30:33;;;;;;;19.00;8.60;;;;;;;;;;4929238;29;20442;-68
2023/08/24 14:32:59;;;;;;;13.40;7.23;;;;;;;;;;4936547;29;20826;-71
2023/08/24 14:35:24;;;;;;;13.07;7.60;;;;;;;;;;4932729;29;20435;-71
2023/08/24 14:37:50;;;;;;;14.73;6.97;;;;;;;;;;4925007;29;20414;-70
2023/08/24 14:40:19;;;;;;;18.20;8.57;;;;;;;;;;4928016;29;20506;-70
2023/08/24 14:42:45;;;;;;;22.83;9.03;;;;;;;;;;4926858;29;20438;-68
2023/08/24 14:45:11;;;;;;;21.50;9.30;;;;;;;;;;4935200;29;20441;-70
2023/08/24 14:47:39;;;;;;;13.90;7.90;;;;;;;;;;4923854;29;20414;-71
2023/08/24 14:50:05;;;;;;;11.13;7.73;;;;;;;;;;4934001;29;20422;-70
2023/08/24 14:52:31;;;;;;;16.10;8.37;;;;;;;;;;4932840;29;20418;-70
2023/08/24 14:54:57;;;;;;;19.30;8.77;;;;;;;;;;4932026;29;20477;-68
2023/08/24 14:57:23;;;;;;;18.67;7.87;;;;;;;;;;4928957;29;20791;-69
2023/08/24 14:59:49;;;;;;;27.47;8.07;;;;;;;;;;4927900;29;20453;-70
2023/08/24 15:02:16;;;;;;;19.70;8.77;;;;;;;;;;4930541;29;20476;-71
2023/08/24 15:04:42;;;;;;;33.57;8.60;;;;;;;;;;4929009;29;20466;-72
2023/08/24 15:07:08;;;;;;;28.97;7.50;;;;;;;;;;4932823;29;20410;-73
2023/08/24 15:09:34;;;;;;;27.10;7.50;;;;;;;;;;4929963;29;20437;-71
2023/08/24 15:12:00;;;;;;;19.70;6.77;;;;;;;;;;4933047;29;20409;-71
2023/08/24 15:14:31;;;;;;;18.70;7.17;;;;;;;;;;4930350;29;20426;-71
2023/08/24 15:16:57;;;;;;;11.67;7.13;;;;;;;;;;4928135;29;20414;-72
2023/08/24 15:19:23;;;;;;;18.67;8.40;;;;;;;;;;4931167;29;20461;-71
2023/08/24 15:21:49;;;;;;;19.30;8.33;;;;;;;;;;4927704;29;20509;-70
2023/08/24 15:24:15;;;;;;;12.83;8.20;;;;;;;;;;4931810;29;20465;-72
2023/08/24 15:26:41;;;;;;;14.20;9.33;;;;;;;;;;4924145;29;20494;-71
2023/08/24 15:29:17;;;;;;;14.97;8.60;;;;;;;;;;4929261;29;20839;-73
2023/08/24 15:31:44;;;;;;;13.73;8.60;;;;;;;;;;4928691;29;20485;-70
2023/08/24 15:34:10;;;;;;;14.53;9.17;;;;;;;;;;4931409;29;20908;-74
2023/08/24 15:36:36;;;;;;;16.50;8.13;;;;;;;;;;4928400;29;20423;-72
2023/08/24 15:39:03;;;;;;;15.53;8.00;;;;;;;;;;4930351;29;20489;-72
2023/08/24 15:41:29;;;;;;;12.43;8.10;;;;;;;;;;4927143;29;20544;-72
2023/08/24 15:43:55;;;;;;;11.03;7.97;;;;;;;;;;4937121;29;20472;-72
2023/08/24 15:46:21;;;;;;;15.53;7.43;;;;;;;;;;4926483;29;20503;-71
2023/08/24 15:48:47;;;;;;;10.43;5.17;;;;;;;;;;4933207;29;20437;-76
2023/08/24 15:51:13;;;;;;;10.40;6.50;;;;;;;;;;4920584;29;20430;-70
2023/08/24 15:53:39;;;;;;;12.10;6.67;;;;;;;;;;4931108;29;20458;-70
2023/08/24 15:56:05;;;;;;;16.53;7.30;;;;;;;;;;4926248;29;20792;-72
2023/08/24 15:58:31;;;;;;;12.90;7.90;;;;;;;;;;4931801;29;20461;-71
2023/08/24 16:00:57;;;;;;;9.80;6.10;;;;;;;;;;4922957;29;20779;-71
2023/08/24 16:03:23;;;;;;;17.00;7.80;;;;;;;;;;4928325;29;20548;-71
2023/08/24 16:05:49;;;;;;;11.37;6.70;;;;;;;;;;4929336;29;20462;-71
2023/08/24 16:08:17;;;;;;;15.00;6.37;;;;;;;;;;4927475;29;20434;-71
2023/08/24 16:10:44;;;;;;;13.63;6.67;;;;;;;;;;4933249;29;20992;-71
2023/08/24 16:13:10;;;;;;;14.30;7.23;;;;;;;;;;4934521;29;20452;-71
2023/08/24 16:15:36;;;;;;;13.23;7.17;;;;;;;;;;4930270;29;20434;-70
2023/08/24 16:18:02;;;;;;;8.60;5.80;;;;;;;;;;4922551;29;20441;-71
2023/08/24 16:20:28;;;;;;;14.43;6.23;;;;;;;;;;4926351;29;20917;-71
2023/08/24 16:22:54;;;;;;;8.53;5.43;;;;;;;;;;4925644;29;20469;-72
2023/08/24 16:25:20;;;;;;;12.77;6.60;;;;;;;;;;4924921;29;20423;-71
2023/08/24 16:27:46;;;;;;;15.53;6.97;;;;;;;;;;4929181;29;20476;-71
2023/08/24 16:30:12;;;;;;;16.43;7.60;;;;;;;;;;4926473;29;20416;-71
2023/08/24 16:32:38;;;;;;;13.13;7.00;;;;;;;;;;4930180;29;20910;-72
2023/08/24 16:35:04;;;;;;;22.40;7.30;;;;;;;;;;4934737;29;20414;-70
2023/08/24 16:37:30;;;;;;;11.83;6.10;;;;;;;;;;4927272;29;20524;-69
2023/08/24 16:39:56;;;;;;;12.57;6.07;;;;;;;;;;4926970;29;20453;-70
2023/08/24 16:42:22;;;;;;;11.47;7.17;;;;;;;;;;4929199;29;20426;-69
2023/08/24 16:44:48;;;;;;;11.20;6.20;;;;;;;;;;4926172;29;20468;-69
2023/08/24 16:47:14;;;;;;;9.30;4.57;;;;;;;;;;4929548;29;20409;-68
2023/08/24 16:49:40;;;;;;;6.47;4.10;;;;;;;;;;4924640;29;20436;-69
2023/08/24 16:52:06;;;;;;;10.40;5.17;;;;;;;;;;4925681;29;20413;-70
2023/08/24 16:54:32;;;;;;;21.43;5.00;;;;;;;;;;4926799;29;20425;-70
2023/08/24 16:56:58;;;;;;;8.00;4.20;;;;;;;;;;4926940;29;20422;-70
2023/08/24 16:59:24;;;;;;;5.60;3.80;;;;;;;;;;4928724;29;20876;-70
2023/08/24 17:01:50;;;;;;;6.03;3.80;;;;;;;;;;4929481;29;20424;-70
2023/08/24 17:04:16;;;;;;;11.03;5.20;;;;;;;;;;4927164;29;20508;-70
2023/08/24 17:06:42;;;;;;;9.90;4.63;;;;;;;;;;4928859;29;20412;-69
2023/08/24 17:09:08;;;;;;;13.83;5.30;;;;;;;;;;4923017;29;20438;-70
2023/08/24 17:11:34;;;;;;;8.00;4.90;;;;;;;;;;4928903;29;20436;-69
2023/08/24 17:14:00;;;;;;;8.17;5.00;;;;;;;;;;4926047;29;20430;-70
2023/08/24 17:16:26;;;;;;;7.43;4.20;;;;;;;;;;4926130;29;20787;-68
2023/08/24 17:18:52;;;;;;;8.97;4.33;;;;;;;;;;4929483;29;20441;-74
2023/08/24 17:21:18;;;;;;;5.10;4.30;;;;;;;;;;4933395;29;20872;-69
2023/08/24 17:23:44;;;;;;;4.80;3.63;;;;;;;;;;4925226;29;20465;-74
2023/08/24 17:26:10;;;;;;;11.53;5.27;;;;;;;;;;4927437;29;20421;-70
2023/08/24 17:28:37;;;;;;;12.90;5.80;;;;;;;;;;4925008;29;20457;-70
2023/08/24 17:31:04;;;;;;;8.57;5.43;;;;;;;;;;4927854;29;20421;-69
2023/08/24 17:33:30;;;;;;;13.80;5.50;;;;;;;;;;4939686;29;20425;-69
2023/08/24 17:35:59;;;;;;;6.67;4.50;;;;;;;;;;4928712;29;20430;-67
2023/08/24 17:38:25;;;;;;;9.50;5.20;;;;;;;;;;4929764;29;20438;-68
2023/08/24 17:40:55;;;;;;;12.53;5.67;;;;;;;;;;4935084;29;20508;-68
2023/08/24 17:43:21;;;;;;;13.43;7.20;;;;;;;;;;4934494;29;20994;-69
2023/08/24 17:45:47;;;;;;;10.90;6.77;;;;;;;;;;4934721;29;20414;-68
2023/08/24 17:48:13;;;;;;;11.57;5.70;;;;;;;;;;4934344;29;20959;-68
2023/08/24 17:50:39;;;;;;;10.70;4.70;;;;;;;;;;4938652;29;20752;-68
2023/08/24 17:53:05;;;;;;;9.13;5.00;;;;;;;;;;4938490;29;20437;-69
2023/08/24 17:55:32;;;;;;;7.40;5.00;;;;;;;;;;4937637;29;20417;-68
2023/08/24 17:57:58;;;;;;;8.77;4.70;;;;;;;;;;4937490;29;20477;-68
2023/08/24 18:00:24;;;;;;;11.30;5.90;;;;;;;;;;4938086;29;20456;-68
2023/08/24 18:02:50;;;;;;;6.47;4.60;;;;;;;;;;4938268;29;20424;-68
2023/08/24 18:05:16;;;;;;;11.17;7.20;;;;;;;;;;4937881;29;20437;-69
2023/08/24 18:07:42;;;;;;;9.20;5.63;;;;;;;;;;4924815;29;20431;-70
2023/08/24 18:10:09;;;;;;;8.70;5.13;;;;;;;;;;4919138;29;20422;-68
2023/08/24 18:12:35;;;;;;;18.20;5.73;;;;;;;;;;4936819;29;20437;-68
2023/08/24 18:15:01;;;;;;;9.80;5.77;;;;;;;;;;4937806;29;20523;-68
2023/08/24 18:17:27;;;;;;;8.57;4.90;;;;;;;;;;4938485;29;20422;-67
2023/08/24 18:19:53;;;;;;;10.27;5.80;;;;;;;;;;4937916;29;20446;-74
2023/08/24 18:22:19;;;;;;;10.67;5.80;;;;;;;;;;4938706;29;20439;-74
2023/08/24 18:24:45;;;;;;;10.37;5.97;;;;;;;;;;4938015;29;20469;-74
2023/08/24 18:27:11;;;;;;;10.63;5.73;;;;;;;;;;4938556;29;20421;-74
2023/08/24 18:29:37;;;;;;;11.40;6.67;;;;;;;;;;4937699;29;20445;-75
2023/08/24 18:32:03;;;;;;;11.60;6.93;;;;;;;;;;4937270;29;20422;-75
2023/08/24 18:34:29;;;;;;;14.97;7.67;;;;;;;;;;4938157;29;20784;-75
2023/08/24 18:36:55;;;;;;;12.73;7.07;;;;;;;;;;4938297;29;20421;-75
2023/08/24 18:39:21;;;;;;;9.33;6.20;;;;;;;;;;4937915;29;20603;-74
2023/08/24 18:41:49;;;;;;;12.97;6.47;;;;;;;;;;4936435;29;20513;-75
2023/08/24 18:44:15;;;;;;;19.53;7.73;;;;;;;;;;4938385;29;20453;-75
2023/08/24 18:46:41;;;;;;;12.50;8.43;;;;;;;;;;4937884;29;20428;-75
2023/08/24 18:49:08;;;;;;;12.70;8.57;;;;;;;;;;4937783;29;20924;-75
2023/08/24 18:51:34;;;;;;;13.23;9.60;;;;;;;;;;4937714;29;20414;-76
2023/08/24 18:54:00;;;;;;;18.20;10.00;;;;;;;;;;4937949;29;20425;-75
2023/08/24 18:56:25;;;;;;;14.90;9.90;;;;;;;;;;4937899;29;20561;-74
2023/08/24 18:58:52;;;;;;;15.47;9.63;;;;;;;;;;4936804;29;20544;-75
2023/08/24 19:01:18;;;;;;;16.10;9.60;;;;;;;;;;4937193;29;20421;-75
2023/08/24 19:03:44;;;;;;;17.13;10.53;;;;;;;;;;4935374;29;20473;-75
2023/08/24 19:06:10;;;;;;;19.63;11.20;;;;;;;;;;4935296;29;20785;-75
2023/08/24 19:08:36;;;;;;;14.77;11.40;;;;;;;;;;4935914;29;20450;-75
2023/08/24 19:11:02;;;;;;;18.40;11.10;;;;;;;;;;4935895;29;20453;-75